createdAt,value
2023-01-19T00:00:15.382Z,98088.53
2023-01-19T00:00:47.549Z,98092.41
2023-01-19T00:01:19.687Z,98089.16
2023-01-19T00:01:51.568Z,98087.91
2023-01-19T00:02:23.631Z,98077.09
2023-01-19T00:02:55.608Z,98074.50
2023-01-19T00:03:27.549Z,98076.97
2023-01-19T00:03:59.421Z,98069.97
2023-01-19T00:04:31.308Z,98077.19
2023-01-19T00:05:04.263Z,98069.62
2023-01-19T00:05:36.352Z,98082.81
2023-01-19T00:06:09.006Z,98073.13
2023-01-19T00:06:40.884Z,98071.22
2023-01-19T00:07:12.788Z,98072.00
2023-01-19T00:07:44.749Z,98078.88
2023-01-19T00:08:16.954Z,98073.59
2023-01-19T00:08:50.250Z,98064.00
2023-01-19T00:09:22.722Z,98067.16
2023-01-19T00:09:54.571Z,98069.62
2023-01-19T00:10:26.483Z,98066.81
2023-01-19T00:10:58.365Z,98070.31
2023-01-19T00:11:30.587Z,98076.06
2023-01-19T00:12:02.471Z,98074.91
2023-01-19T00:12:34.477Z,98078.88
2023-01-19T00:13:06.328Z,98079.44
2023-01-19T00:13:39.339Z,98081.56
2023-01-19T00:14:11.192Z,98079.78
2023-01-19T00:14:43.087Z,98088.00
2023-01-19T00:15:14.928Z,98085.19
2023-01-19T00:15:47.014Z,98085.09
2023-01-19T00:16:22.466Z,98089.06
2023-01-19T00:16:54.682Z,98089.59
2023-01-19T00:17:26.498Z,98090.97
2023-01-19T00:17:58.335Z,98092.19
2023-01-19T00:18:30.310Z,98082.50
2023-01-19T00:19:02.172Z,98079.56
2023-01-19T00:19:33.985Z,98086.88
2023-01-19T00:20:06.550Z,98087.00
2023-01-19T00:20:39.751Z,98082.06
2023-01-19T00:21:12.470Z,98091.53
2023-01-19T00:21:44.319Z,98086.88
2023-01-19T00:22:16.472Z,98091.66
2023-01-19T00:22:50.918Z,98093.44
2023-01-19T00:23:22.798Z,98093.56
2023-01-19T00:23:54.830Z,98094.78
2023-01-19T00:24:26.706Z,98095.56
2023-01-19T00:24:58.556Z,98096.81
2023-01-19T00:25:30.440Z,98094.16
2023-01-19T00:26:02.288Z,98091.25
2023-01-19T00:26:34.161Z,98083.84
2023-01-19T00:27:06.077Z,98086.75
2023-01-19T00:27:38.303Z,98083.59
2023-01-19T00:28:12.426Z,98093.56
2023-01-19T00:28:44.924Z,98085.09
2023-01-19T00:29:16.821Z,98086.34
2023-01-19T00:29:48.964Z,98084.88
2023-01-19T00:30:20.924Z,98090.28
2023-01-19T00:30:52.845Z,98087.91
2023-01-19T00:31:24.781Z,98083.50
2023-01-19T00:31:56.648Z,98089.06
2023-01-19T00:32:28.516Z,98092.66
2023-01-19T00:33:00.887Z,98088.69
2023-01-19T00:33:33.009Z,98076.50
2023-01-19T00:34:06.205Z,98086.75
2023-01-19T00:34:39.583Z,98076.50
2023-01-19T00:35:12.010Z,98079.69
2023-01-19T00:35:44.267Z,98071.81
2023-01-19T00:36:16.719Z,98070.56
2023-01-19T00:36:48.636Z,98069.41
2023-01-19T00:37:20.680Z,98072.91
2023-01-19T00:37:52.553Z,98071.41
2023-01-19T00:38:24.722Z,98072.31
2023-01-19T00:38:56.601Z,98073.69
2023-01-19T00:39:28.538Z,98074.34
2023-01-19T00:40:00.456Z,98075.69
2023-01-19T00:40:32.466Z,98069.97
2023-01-19T00:41:04.403Z,98072.00
2023-01-19T00:41:55.288Z,98071.53
2023-01-19T00:42:44.381Z,98073.09
2023-01-19T00:43:16.329Z,98074.25
2023-01-19T00:43:48.463Z,98077.50
2023-01-19T00:44:20.311Z,98073.69
2023-01-19T00:44:52.116Z,98081.25
2023-01-19T00:45:24.917Z,98080.00
2023-01-19T00:45:56.836Z,98078.00
2023-01-19T00:46:28.726Z,98074.47
2023-01-19T00:47:01.068Z,98080.69
2023-01-19T00:47:33.371Z,98077.28
2023-01-19T00:48:05.781Z,98084.72
2023-01-19T00:48:37.712Z,98079.87
2023-01-19T00:49:10.088Z,98081.69
2023-01-19T00:49:41.927Z,98076.50
2023-01-19T00:50:16.804Z,98079.31
2023-01-19T00:50:49.232Z,98078.28
2023-01-19T00:51:21.146Z,98082.81
2023-01-19T00:51:53.033Z,98081.94
2023-01-19T00:52:25.036Z,98074.38
2023-01-19T00:52:58.378Z,98067.25
2023-01-19T00:53:32.633Z,98076.59
2023-01-19T00:54:05.111Z,98068.69
2023-01-19T00:54:37.245Z,98069.03
2023-01-19T00:55:11.753Z,98066.81
2023-01-19T00:55:43.589Z,98068.62
2023-01-19T00:56:15.403Z,98059.72
2023-01-19T00:56:47.299Z,98057.13
2023-01-19T00:57:19.318Z,98058.16
2023-01-19T00:57:51.323Z,98059.25
2023-01-19T00:58:23.163Z,98051.38
2023-01-19T00:58:54.995Z,98051.38
2023-01-19T00:59:26.967Z,98056.56
2023-01-19T00:59:59.219Z,98047.28
2023-01-19T01:00:31.221Z,98050.03
2023-01-19T01:01:04.740Z,98054.66
2023-01-19T01:01:45.417Z,98049.47
2023-01-19T01:02:18.278Z,98052.19
2023-01-19T01:02:52.080Z,98052.28
2023-01-19T01:03:28.013Z,98050.34
2023-01-19T01:04:00.040Z,98052.84
2023-01-19T01:04:31.953Z,98047.88
2023-01-19T01:05:06.195Z,98048.53
2023-01-19T01:05:41.558Z,98055.31
2023-01-19T01:06:13.702Z,98047.28
2023-01-19T01:06:45.566Z,98051.81
2023-01-19T01:07:17.416Z,98051.78
2023-01-19T01:07:49.896Z,98059.13
2023-01-19T01:08:21.827Z,98051.81
2023-01-19T01:08:53.766Z,98048.78
2023-01-19T01:09:25.739Z,98048.19
2023-01-19T01:09:57.692Z,98049.66
2023-01-19T01:10:29.891Z,98046.62
2023-01-19T01:11:01.800Z,98048.19
2023-01-19T01:11:33.653Z,98046.62
2023-01-19T01:12:06.058Z,98040.88
2023-01-19T01:12:38.583Z,98042.00
2023-01-19T01:13:20.452Z,98043.22
2023-01-19T01:13:56.623Z,98033.87
2023-01-19T01:14:29.000Z,98036.94
2023-01-19T01:15:00.832Z,98039.19
2023-01-19T01:15:32.972Z,98032.66
2023-01-19T01:16:06.089Z,98037.38
2023-01-19T01:16:38.009Z,98035.81
2023-01-19T01:17:11.467Z,98037.38
2023-01-19T01:17:47.162Z,98031.53
2023-01-19T01:18:19.425Z,98029.59
2023-01-19T01:18:51.287Z,98038.84
2023-01-19T01:19:23.132Z,98030.62
2023-01-19T01:19:55.582Z,98031.09
2023-01-19T01:20:30.238Z,98028.59
2023-01-19T01:21:03.845Z,98024.75
2023-01-19T01:21:35.831Z,98021.69
2023-01-19T01:22:09.302Z,98017.75
2023-01-19T01:22:45.195Z,98015.28
2023-01-19T01:23:23.073Z,98010.66
2023-01-19T01:23:55.297Z,98015.16
2023-01-19T01:24:27.131Z,98016.84
2023-01-19T01:24:58.954Z,98016.19
2023-01-19T01:25:31.233Z,98014.06
2023-01-19T01:26:03.425Z,98010.53
2023-01-19T01:26:35.609Z,98013.78
2023-01-19T01:27:07.440Z,98016.84
2023-01-19T01:27:39.448Z,98019.13
2023-01-19T01:28:11.334Z,98015.84
2023-01-19T01:28:43.217Z,98012.34
2023-01-19T01:29:15.112Z,98011.34
2023-01-19T01:29:47.938Z,98014.47
2023-01-19T01:30:20.918Z,98011.75
2023-01-19T01:30:54.628Z,98011.09
2023-01-19T01:31:26.964Z,98017.75
2023-01-19T01:31:58.874Z,98016.16
2023-01-19T01:32:30.810Z,98009.38
2023-01-19T01:33:03.041Z,98018.87
2023-01-19T01:33:41.113Z,98016.06
2023-01-19T01:34:13.781Z,98007.78
2023-01-19T01:34:45.677Z,98019.63
2023-01-19T01:35:17.823Z,98022.22
2023-01-19T01:35:50.271Z,98025.22
2023-01-19T01:36:22.651Z,98029.75
2023-01-19T01:36:54.836Z,98027.22
2023-01-19T01:37:26.756Z,98031.19
2023-01-19T01:37:59.125Z,98024.88
2023-01-19T01:38:30.966Z,98031.50
2023-01-19T01:39:03.306Z,98019.91
2023-01-19T01:39:36.200Z,98028.53
2023-01-19T01:40:12.571Z,98028.53
2023-01-19T01:40:44.660Z,98022.56
2023-01-19T01:41:16.734Z,98021.56
2023-01-19T01:41:48.628Z,98024.38
2023-01-19T01:42:27.498Z,98025.38
2023-01-19T01:42:59.858Z,98016.16
2023-01-19T01:43:58.670Z,98018.75
2023-01-19T01:45:06.104Z,98019.13
2023-01-19T01:45:40.324Z,98018.97
2023-01-19T01:46:15.458Z,98027.63
2023-01-19T01:46:47.548Z,98025.38
2023-01-19T01:47:32.708Z,98029.13
2023-01-19T01:48:13.274Z,98032.84
2023-01-19T01:48:50.272Z,98024.84
2023-01-19T01:49:22.268Z,98024.06
2023-01-19T01:50:01.746Z,98024.38
2023-01-19T01:50:37.947Z,98025.53
2023-01-19T01:51:38.451Z,98023.19
2023-01-19T01:52:11.386Z,98021.34
2023-01-19T01:53:06.357Z,98022.34
2023-01-19T01:53:41.507Z,98021.34
2023-01-19T01:54:27.006Z,98021.91
2023-01-19T01:55:00.045Z,98016.06
2023-01-19T01:55:34.934Z,98024.75
2023-01-19T01:56:11.742Z,98016.84
2023-01-19T01:56:47.579Z,98027.97
2023-01-19T01:57:19.787Z,98020.63
2023-01-19T01:57:57.481Z,98022.22
2023-01-19T01:58:30.219Z,98025.38
2023-01-19T01:59:11.356Z,98024.50
2023-01-19T01:59:45.194Z,98019.63
2023-01-19T02:00:17.682Z,98025.56
2023-01-19T02:01:09.695Z,98024.00
2023-01-19T02:02:00.960Z,98031.88
2023-01-19T02:02:51.011Z,98032.47
2023-01-19T02:03:25.572Z,98039.00
2023-01-19T02:03:58.466Z,98039.75
2023-01-19T02:04:31.633Z,98045.59
2023-01-19T02:05:10.913Z,98042.53
2023-01-19T02:05:44.742Z,98049.53
2023-01-19T02:06:17.245Z,98051.78
2023-01-19T02:07:08.498Z,98049.31
2023-01-19T02:08:26.619Z,98049.91
2023-01-19T02:09:23.081Z,98062.16
2023-01-19T02:10:13.528Z,98052.31
2023-01-19T02:11:04.780Z,98055.81
2023-01-19T02:11:55.238Z,98055.75
2023-01-19T02:12:47.236Z,98062.09
2023-01-19T02:13:23.055Z,98054.38
2023-01-19T02:13:54.899Z,98059.56
2023-01-19T02:14:27.411Z,98067.91
2023-01-19T02:14:59.293Z,98066.88
2023-01-19T02:15:31.167Z,98065.09
2023-01-19T02:16:07.618Z,98057.87
2023-01-19T02:16:39.776Z,98057.09
2023-01-19T02:17:11.672Z,98053.94
2023-01-19T02:17:44.232Z,98053.59
2023-01-19T02:18:16.330Z,98047.19
2023-01-19T02:18:48.307Z,98052.56
2023-01-19T02:19:31.035Z,98037.81
2023-01-19T02:20:02.943Z,98032.63
2023-01-19T02:20:37.628Z,98030.28
2023-01-19T02:21:24.297Z,98024.66
2023-01-19T02:22:06.016Z,98015.50
2023-01-19T02:22:48.716Z,98010.91
2023-01-19T02:23:38.502Z,98004.13
2023-01-19T02:24:11.002Z,98007.28
2023-01-19T02:24:43.408Z,97998.88
2023-01-19T02:25:15.919Z,97995.81
2023-01-19T02:25:49.158Z,98005.28
2023-01-19T02:26:25.027Z,98007.75
2023-01-19T02:26:58.019Z,98009.31
2023-01-19T02:27:29.972Z,98007.75
2023-01-19T02:28:02.265Z,98012.59
2023-01-19T02:28:34.776Z,98013.00
2023-01-19T02:29:16.372Z,98027.91
2023-01-19T02:29:48.544Z,98037.25
2023-01-19T02:30:20.780Z,98039.72
2023-01-19T02:30:52.865Z,98042.72
2023-01-19T02:31:26.137Z,98053.06
2023-01-19T02:31:59.831Z,98055.44
2023-01-19T02:32:31.767Z,98060.47
2023-01-19T02:33:03.933Z,98067.03
2023-01-19T02:33:37.390Z,98066.41
2023-01-19T02:34:11.955Z,98071.56
2023-01-19T02:34:43.831Z,98077.88
2023-01-19T02:35:16.080Z,98071.28
2023-01-19T02:35:51.352Z,98078.16
2023-01-19T02:36:27.362Z,98084.94
2023-01-19T02:37:09.537Z,98080.47
2023-01-19T02:37:43.487Z,98077.12
2023-01-19T02:38:17.542Z,98085.06
2023-01-19T02:38:51.705Z,98082.94
2023-01-19T02:39:32.866Z,98082.41
2023-01-19T02:40:12.445Z,98078.59
2023-01-19T02:40:46.136Z,98072.13
2023-01-19T02:41:22.447Z,98072.47
2023-01-19T02:42:01.421Z,98066.06
2023-01-19T02:42:50.037Z,98060.03
2023-01-19T02:43:23.927Z,98056.56
2023-01-19T02:43:58.041Z,98053.47
2023-01-19T02:44:31.547Z,98046.28
2023-01-19T02:45:06.927Z,98041.56
2023-01-19T02:45:39.608Z,98023.56
2023-01-19T02:46:11.724Z,98024.34
2023-01-19T02:46:43.981Z,98022.72
2023-01-19T02:47:16.101Z,98018.28
2023-01-19T02:47:51.691Z,98013.84
2023-01-19T02:48:23.592Z,98007.00
2023-01-19T02:49:01.643Z,98000.94
2023-01-19T02:49:33.918Z,98002.09
2023-01-19T02:50:32.188Z,98010.28
2023-01-19T02:51:12.909Z,98010.28
2023-01-19T02:51:44.870Z,97999.66
2023-01-19T02:52:18.025Z,98012.47
2023-01-19T02:52:52.611Z,98014.84
2023-01-19T02:53:30.440Z,98019.94
2023-01-19T02:54:12.329Z,98013.13
2023-01-19T02:54:54.580Z,98020.63
2023-01-19T02:55:30.672Z,98020.03
2023-01-19T02:56:19.524Z,98029.03
2023-01-19T02:57:19.333Z,98026.44
2023-01-19T02:58:31.200Z,98021.84
2023-01-19T02:59:41.623Z,98024.06
2023-01-19T03:00:44.684Z,98031.25
2023-01-19T03:01:36.274Z,98039.22
2023-01-19T03:02:37.389Z,98043.41
2023-01-19T03:03:27.074Z,98058.78
2023-01-19T03:04:28.346Z,98065.09
2023-01-19T03:05:27.766Z,98066.41
2023-01-19T03:06:05.511Z,98072.37
2023-01-19T03:06:40.137Z,98067.78
2023-01-19T03:07:20.107Z,98064.87
2023-01-19T03:08:10.495Z,98072.44
2023-01-19T03:08:47.997Z,98065.19
2023-01-19T03:09:32.649Z,98073.44
2023-01-19T03:10:27.459Z,98078.34
2023-01-19T03:11:11.813Z,98071.72
2023-01-19T03:11:52.186Z,98075.19
2023-01-19T03:12:35.575Z,98082.31
2023-01-19T03:13:27.438Z,98079.47
2023-01-19T03:14:06.319Z,98071.09
2023-01-19T03:14:43.294Z,98070.00
2023-01-19T03:15:23.799Z,98071.63
2023-01-19T03:15:58.818Z,98069.22
2023-01-19T03:16:45.656Z,98061.38
2023-01-19T03:17:19.126Z,98072.00
2023-01-19T03:17:53.446Z,98071.13
2023-01-19T03:18:29.000Z,98070.72
2023-01-19T03:19:17.776Z,98067.13
2023-01-19T03:19:54.304Z,98075.53
2023-01-19T03:20:28.853Z,98077.91
2023-01-19T03:21:05.468Z,98082.50
2023-01-19T03:21:42.832Z,98081.50
2023-01-19T03:22:20.917Z,98087.53
2023-01-19T03:23:00.595Z,98081.97
2023-01-19T03:23:35.356Z,98088.97
2023-01-19T03:24:10.907Z,98083.72
2023-01-19T03:24:45.926Z,98085.16
2023-01-19T03:25:21.397Z,98087.59
2023-01-19T03:25:57.579Z,98092.00
2023-01-19T03:26:34.609Z,98091.56
2023-01-19T03:27:17.971Z,98087.44
2023-01-19T03:27:52.764Z,98091.56
2023-01-19T03:28:26.459Z,98088.37
2023-01-19T03:29:00.405Z,98095.78
2023-01-19T03:29:37.983Z,98097.38
2023-01-19T03:30:22.888Z,98084.94
2023-01-19T03:31:05.096Z,98087.31
2023-01-19T03:31:37.900Z,98097.28
2023-01-19T03:32:16.305Z,98085.78
2023-01-19T03:32:54.845Z,98085.78
2023-01-19T03:33:31.853Z,98085.63
2023-01-19T03:34:08.048Z,98088.66
2023-01-19T03:34:41.941Z,98079.09
2023-01-19T03:35:16.922Z,98082.06
2023-01-19T03:35:52.991Z,98082.59
2023-01-19T03:36:40.509Z,98075.72
2023-01-19T03:37:16.431Z,98069.78
2023-01-19T03:37:50.704Z,98061.41
2023-01-19T03:38:26.235Z,98050.19
2023-01-19T03:39:01.284Z,98042.25
2023-01-19T03:39:34.365Z,98033.25
2023-01-19T03:40:06.974Z,98018.53
2023-01-19T03:40:40.451Z,98014.50
2023-01-19T03:41:16.804Z,98010.63
2023-01-19T03:41:53.681Z,98003.00
2023-01-19T03:42:28.491Z,97997.81
2023-01-19T03:43:02.874Z,97995.87
2023-01-19T03:43:36.735Z,97990.66
2023-01-19T03:44:11.690Z,97992.22
2023-01-19T03:44:46.367Z,97990.66
2023-01-19T03:45:18.644Z,98000.22
2023-01-19T03:45:52.052Z,98000.22
2023-01-19T03:46:25.723Z,98014.50
2023-01-19T03:46:59.488Z,98012.84
2023-01-19T03:47:32.040Z,98022.41
2023-01-19T03:48:05.198Z,98020.81
2023-01-19T03:48:37.956Z,98024.78
2023-01-19T03:49:10.019Z,98026.56
2023-01-19T03:49:44.389Z,98024.00
2023-01-19T03:50:25.337Z,98019.19
2023-01-19T03:50:57.382Z,98023.19
2023-01-19T03:51:29.639Z,98024.00
2023-01-19T03:52:01.901Z,98013.13
2023-01-19T03:52:34.229Z,98007.13
2023-01-19T03:53:11.032Z,98010.47
2023-01-19T03:53:43.265Z,98010.13
2023-01-19T03:54:15.134Z,98011.94
2023-01-19T03:54:48.214Z,98018.53
2023-01-19T03:55:20.211Z,98010.31
2023-01-19T03:55:54.172Z,98019.66
2023-01-19T03:56:26.313Z,98013.78
2023-01-19T03:56:58.884Z,98011.06
2023-01-19T03:57:30.915Z,98024.91
2023-01-19T03:58:03.130Z,98029.16
2023-01-19T03:58:34.985Z,98031.06
2023-01-19T03:59:07.475Z,98034.87
2023-01-19T03:59:39.343Z,98040.19
2023-01-19T04:00:11.970Z,98038.72
2023-01-19T04:00:43.975Z,98038.44
2023-01-19T04:01:17.128Z,98039.22
2023-01-19T04:01:49.454Z,98039.81
2023-01-19T04:02:21.345Z,98031.75
2023-01-19T04:02:53.316Z,98038.78
2023-01-19T04:03:25.195Z,98044.03
2023-01-19T04:03:57.501Z,98047.69
2023-01-19T04:04:29.349Z,98049.69
2023-01-19T04:05:01.215Z,98055.81
2023-01-19T04:05:33.701Z,98057.56
2023-01-19T04:06:05.741Z,98066.53
2023-01-19T04:06:37.980Z,98060.19
2023-01-19T04:07:10.559Z,98058.28
2023-01-19T04:07:42.471Z,98053.69
2023-01-19T04:08:14.385Z,98058.09
2023-01-19T04:08:51.729Z,98056.59
2023-01-19T04:09:24.818Z,98049.47
2023-01-19T04:09:56.650Z,98052.88
2023-01-19T04:10:28.523Z,98052.03
2023-01-19T04:11:00.376Z,98050.59
2023-01-19T04:11:32.265Z,98048.97
2023-01-19T04:12:04.689Z,98040.78
2023-01-19T04:12:36.552Z,98036.19
2023-01-19T04:13:08.429Z,98037.06
2023-01-19T04:13:40.388Z,98032.28
2023-01-19T04:14:12.255Z,98037.28
2023-01-19T04:14:44.110Z,98031.56
2023-01-19T04:15:16.602Z,98026.56
2023-01-19T04:15:48.540Z,98024.44
2023-01-19T04:16:21.225Z,98031.25
2023-01-19T04:16:53.405Z,98036.75
2023-01-19T04:17:25.548Z,98031.28
2023-01-19T04:17:58.687Z,98033.16
2023-01-19T04:18:33.769Z,98028.97
2023-01-19T04:19:06.442Z,98029.53
2023-01-19T04:19:38.653Z,98022.94
2023-01-19T04:20:10.760Z,98020.37
2023-01-19T04:20:42.644Z,98029.06
2023-01-19T04:21:14.798Z,98024.12
2023-01-19T04:21:49.583Z,98023.66
2023-01-19T04:22:21.444Z,98023.44
2023-01-19T04:22:55.043Z,98014.84
2023-01-19T04:23:27.372Z,98020.66
2023-01-19T04:23:59.625Z,98018.16
2023-01-19T04:24:31.490Z,98014.94
2023-01-19T04:25:03.383Z,98010.97
2023-01-19T04:25:36.330Z,98015.16
2023-01-19T04:26:09.327Z,98003.06
2023-01-19T04:26:41.239Z,98008.69
2023-01-19T04:27:15.210Z,98014.84
2023-01-19T04:27:47.101Z,98010.63
2023-01-19T04:28:19.281Z,98012.78
2023-01-19T04:28:51.297Z,98015.22
2023-01-19T04:29:24.489Z,98014.41
2023-01-19T04:29:56.458Z,98017.31
2023-01-19T04:30:28.468Z,98023.59
2023-01-19T04:31:01.085Z,98022.44
2023-01-19T04:31:35.626Z,98023.97
2023-01-19T04:32:07.530Z,98020.59
2023-01-19T04:32:39.382Z,98030.28
2023-01-19T04:33:11.234Z,98030.91
2023-01-19T04:33:43.330Z,98030.91
2023-01-19T04:34:15.209Z,98039.25
2023-01-19T04:34:47.040Z,98040.13
2023-01-19T04:35:19.322Z,98045.59
2023-01-19T04:35:54.358Z,98039.66
2023-01-19T04:36:26.415Z,98049.97
2023-01-19T04:36:58.288Z,98050.56
2023-01-19T04:37:30.307Z,98050.13
2023-01-19T04:38:02.179Z,98046.34
2023-01-19T04:38:34.214Z,98052.03
2023-01-19T04:39:08.412Z,98041.41
2023-01-19T04:39:40.288Z,98041.59
2023-01-19T04:40:12.641Z,98044.44
2023-01-19T04:40:44.635Z,98046.84
2023-01-19T04:41:16.770Z,98041.69
2023-01-19T04:41:48.703Z,98041.09
2023-01-19T04:42:20.624Z,98044.97
2023-01-19T04:42:52.433Z,98039.38
2023-01-19T04:43:24.299Z,98035.88
2023-01-19T04:43:56.123Z,98043.63
2023-01-19T04:44:28.771Z,98038.28
2023-01-19T04:45:00.637Z,98039.84
2023-01-19T04:45:32.668Z,98041.44
2023-01-19T04:46:04.717Z,98035.22
2023-01-19T04:46:36.639Z,98040.63
2023-01-19T04:47:09.012Z,98035.06
2023-01-19T04:47:42.674Z,98039.38
2023-01-19T04:48:15.192Z,98038.34
2023-01-19T04:48:47.020Z,98036.59
2023-01-19T04:49:18.951Z,98038.00
2023-01-19T04:49:51.126Z,98033.44
2023-01-19T04:50:23.066Z,98035.06
2023-01-19T04:50:54.887Z,98035.44
2023-01-19T04:51:26.752Z,98035.06
2023-01-19T04:51:58.822Z,98040.16
2023-01-19T04:52:37.327Z,98036.34
2023-01-19T04:53:09.602Z,98040.41
2023-01-19T04:53:41.763Z,98037.06
2023-01-19T04:54:13.770Z,98041.78
2023-01-19T04:54:45.634Z,98035.78
2023-01-19T04:55:18.511Z,98036.59
2023-01-19T04:55:55.069Z,98035.16
2023-01-19T04:56:27.313Z,98026.97
2023-01-19T04:56:59.160Z,98031.62
2023-01-19T04:57:32.133Z,98031.03
2023-01-19T04:58:04.341Z,98027.41
2023-01-19T04:58:36.735Z,98027.78
2023-01-19T04:59:08.657Z,98029.03
2023-01-19T04:59:40.573Z,98029.31
2023-01-19T05:00:13.312Z,98023.50
2023-01-19T05:00:45.640Z,98029.38
2023-01-19T05:01:17.570Z,98032.38
2023-01-19T05:01:49.763Z,98031.94
2023-01-19T05:02:22.688Z,98030.88
2023-01-19T05:02:54.563Z,98030.44
2023-01-19T05:03:27.002Z,98039.22
2023-01-19T05:04:00.634Z,98035.06
2023-01-19T05:04:32.701Z,98039.72
2023-01-19T05:05:04.904Z,98051.28
2023-01-19T05:05:36.739Z,98056.09
2023-01-19T05:06:08.874Z,98057.63
2023-01-19T05:06:40.718Z,98052.41
2023-01-19T05:07:12.578Z,98055.34
2023-01-19T05:07:44.722Z,98051.88
2023-01-19T05:08:16.577Z,98052.88
2023-01-19T05:08:48.518Z,98050.03
2023-01-19T05:09:20.518Z,98052.44
2023-01-19T05:09:52.587Z,98046.69
2023-01-19T05:10:24.513Z,98048.28
2023-01-19T05:10:57.577Z,98049.00
2023-01-19T05:11:30.269Z,98044.44
2023-01-19T05:12:02.245Z,98058.13
2023-01-19T05:12:34.231Z,98051.44
2023-01-19T05:13:06.074Z,98052.81
2023-01-19T05:13:37.902Z,98066.59
2023-01-19T05:14:09.895Z,98061.41
2023-01-19T05:14:41.757Z,98072.00
2023-01-19T05:15:13.842Z,98062.56
2023-01-19T05:15:45.756Z,98074.78
2023-01-19T05:16:17.759Z,98067.47
2023-01-19T05:16:49.927Z,98066.47
2023-01-19T05:17:22.629Z,98056.25
2023-01-19T05:17:54.517Z,98053.69
2023-01-19T05:18:26.431Z,98047.81
2023-01-19T05:18:58.306Z,98043.78
2023-01-19T05:19:30.169Z,98042.97
2023-01-19T05:20:03.109Z,98043.94
2023-01-19T05:20:34.983Z,98038.19
2023-01-19T05:21:07.877Z,98046.62
2023-01-19T05:21:39.724Z,98041.03
2023-01-19T05:22:11.926Z,98042.97
2023-01-19T05:22:48.933Z,98052.97
2023-01-19T05:23:20.987Z,98054.56
2023-01-19T05:23:52.849Z,98053.97
2023-01-19T05:24:24.755Z,98052.41
2023-01-19T05:24:56.690Z,98064.97
2023-01-19T05:25:29.076Z,98063.38
2023-01-19T05:26:02.332Z,98073.53
2023-01-19T05:26:34.195Z,98078.13
2023-01-19T05:27:06.148Z,98076.53
2023-01-19T05:27:38.737Z,98081.69
2023-01-19T05:28:11.411Z,98087.00
2023-01-19T05:28:43.314Z,98089.19
2023-01-19T05:29:15.378Z,98087.97
2023-01-19T05:29:47.222Z,98081.19
2023-01-19T05:30:19.343Z,98093.13
2023-01-19T05:30:51.230Z,98088.75
2023-01-19T05:31:23.429Z,98097.09
2023-01-19T05:31:55.400Z,98102.44
2023-01-19T05:32:27.473Z,98101.81
2023-01-19T05:33:00.097Z,98102.16
2023-01-19T05:33:32.147Z,98102.59
2023-01-19T05:34:04.980Z,98107.41
2023-01-19T05:34:37.013Z,98103.91
2023-01-19T05:35:09.375Z,98102.47
2023-01-19T05:35:41.898Z,98107.09
2023-01-19T05:36:13.796Z,98115.38
2023-01-19T05:36:45.691Z,98106.97
2023-01-19T05:37:17.578Z,98117.91
2023-01-19T05:37:49.447Z,98119.66
2023-01-19T05:38:34.350Z,98121.22
2023-01-19T05:39:06.804Z,98122.66
2023-01-19T05:39:38.687Z,98124.13
2023-01-19T05:40:11.259Z,98129.22
2023-01-19T05:40:43.178Z,98119.66
2023-01-19T05:41:15.188Z,98126.03
2023-01-19T05:41:47.783Z,98124.22
2023-01-19T05:42:19.865Z,98127.59
2023-01-19T05:42:53.302Z,98127.13
2023-01-19T05:43:25.843Z,98128.78
2023-01-19T05:43:58.028Z,98129.97
2023-01-19T05:44:29.952Z,98128.97
2023-01-19T05:45:01.871Z,98126.63
2023-01-19T05:45:34.276Z,98124.44
2023-01-19T05:46:06.243Z,98125.22
2023-01-19T05:46:47.225Z,98114.78
2023-01-19T05:47:19.195Z,98117.13
2023-01-19T05:47:51.109Z,98106.62
2023-01-19T05:48:23.013Z,98102.63
2023-01-19T05:48:55.177Z,98094.44
2023-01-19T05:49:27.118Z,98099.03
2023-01-19T05:49:58.993Z,98096.44
2023-01-19T05:50:31.263Z,98093.84
2023-01-19T05:51:03.244Z,98092.88
2023-01-19T05:51:38.098Z,98093.66
2023-01-19T05:52:10.038Z,98081.94
2023-01-19T05:52:41.993Z,98083.75
2023-01-19T05:53:13.874Z,98093.31
2023-01-19T05:53:45.791Z,98090.31
2023-01-19T05:54:18.003Z,98092.50
2023-01-19T05:54:51.431Z,98090.03
2023-01-19T05:55:23.387Z,98087.75
2023-01-19T05:56:05.134Z,98084.25
2023-01-19T05:56:37.042Z,98081.69
2023-01-19T05:57:09.264Z,98087.31
2023-01-19T05:57:41.345Z,98080.41
2023-01-19T05:58:13.239Z,98067.09
2023-01-19T05:58:45.174Z,98068.06
2023-01-19T05:59:23.975Z,98065.84
2023-01-19T05:59:55.883Z,98062.44
2023-01-19T06:00:28.842Z,98058.03
2023-01-19T06:01:08.868Z,98062.47
2023-01-19T06:01:41.762Z,98055.66
2023-01-19T06:02:13.837Z,98056.22
2023-01-19T06:02:48.460Z,98058.22
2023-01-19T06:03:20.457Z,98056.41
2023-01-19T06:03:52.538Z,98057.03
2023-01-19T06:04:24.436Z,98055.88
2023-01-19T06:04:56.820Z,98056.22
2023-01-19T06:05:28.904Z,98057.75
2023-01-19T06:06:01.634Z,98057.94
2023-01-19T06:06:33.584Z,98055.94
2023-01-19T06:07:06.992Z,98055.09
2023-01-19T06:07:39.249Z,98056.53
2023-01-19T06:08:11.139Z,98064.87
2023-01-19T06:08:42.999Z,98064.44
2023-01-19T06:09:15.236Z,98068.00
2023-01-19T06:09:47.120Z,98068.00
2023-01-19T06:10:19.038Z,98079.69
2023-01-19T06:10:51.042Z,98081.31
2023-01-19T06:11:23.269Z,98083.97
2023-01-19T06:11:57.675Z,98089.09
2023-01-19T06:12:29.670Z,98095.22
2023-01-19T06:13:01.956Z,98089.81
2023-01-19T06:13:35.092Z,98083.19
2023-01-19T06:14:06.969Z,98090.06
2023-01-19T06:14:38.892Z,98093.31
2023-01-19T06:15:11.204Z,98090.53
2023-01-19T06:15:43.785Z,98083.34
2023-01-19T06:16:15.680Z,98072.63
2023-01-19T06:16:48.046Z,98066.13
2023-01-19T06:17:20.573Z,98063.91
2023-01-19T06:17:52.455Z,98059.00
2023-01-19T06:18:24.330Z,98057.19
2023-01-19T06:18:56.171Z,98050.44
2023-01-19T06:19:28.209Z,98051.59
2023-01-19T06:20:00.052Z,98048.19
2023-01-19T06:20:31.931Z,98056.56
2023-01-19T06:21:08.202Z,98056.28
2023-01-19T06:21:40.128Z,98061.06
2023-01-19T06:22:12.407Z,98066.59
2023-01-19T06:22:44.462Z,98073.41
2023-01-19T06:23:16.657Z,98080.09
2023-01-19T06:23:48.559Z,98077.09
2023-01-19T06:24:20.478Z,98084.09
2023-01-19T06:24:52.484Z,98081.25
2023-01-19T06:25:25.478Z,98082.06
2023-01-19T06:25:57.472Z,98071.97
2023-01-19T06:26:29.621Z,98075.38
2023-01-19T06:27:01.595Z,98072.34
2023-01-19T06:27:33.713Z,98066.94
2023-01-19T06:28:05.771Z,98070.25
2023-01-19T06:28:37.643Z,98069.44
2023-01-19T06:29:11.315Z,98068.62
2023-01-19T06:29:43.177Z,98067.09
2023-01-19T06:30:15.199Z,98070.53
2023-01-19T06:30:51.746Z,98072.28
2023-01-19T06:31:23.633Z,98078.38
2023-01-19T06:31:55.816Z,98072.87
2023-01-19T06:32:27.771Z,98067.06
2023-01-19T06:33:00.303Z,98068.00
2023-01-19T06:33:32.369Z,98077.28
2023-01-19T06:34:04.380Z,98069.44
2023-01-19T06:34:36.306Z,98066.13
2023-01-19T06:35:08.521Z,98076.28
2023-01-19T06:35:43.524Z,98069.19
2023-01-19T06:36:15.450Z,98071.94
2023-01-19T06:36:47.432Z,98069.94
2023-01-19T06:37:19.314Z,98072.69
2023-01-19T06:37:53.223Z,98071.50
2023-01-19T06:38:25.445Z,98072.87
2023-01-19T06:38:57.333Z,98069.84
2023-01-19T06:39:29.259Z,98076.19
2023-01-19T06:40:01.197Z,98071.75
2023-01-19T06:40:33.135Z,98072.78
2023-01-19T06:41:05.268Z,98072.03
2023-01-19T06:41:37.113Z,98069.03
2023-01-19T06:42:09.299Z,98068.59
2023-01-19T06:42:41.165Z,98070.81
2023-01-19T06:43:13.441Z,98073.47
2023-01-19T06:43:45.611Z,98072.03